createdAt,value
2018-03-02T00:01:31.820Z,21.53
2018-03-02T00:04:01.009Z,23.20
2018-03-02T00:06:30.628Z,22.27
2018-03-02T00:08:58.844Z,22.80
2018-03-02T00:11:26.956Z,20.53
2018-03-02T00:13:54.911Z,21.33
2018-03-02T00:16:23.027Z,22.50
2018-03-02T00:18:52.236Z,20.87
2018-03-02T00:21:20.296Z,21.77
2018-03-02T00:23:48.372Z,21.23
2018-03-02T00:26:16.706Z,19.93
2018-03-02T00:28:44.913Z,21.30
2018-03-02T00:31:12.287Z,21.97
2018-03-02T00:33:40.629Z,23.07
2018-03-02T00:36:14.326Z,21.00
2018-03-02T00:38:43.354Z,23.00
2018-03-02T00:41:11.597Z,22.30
2018-03-02T00:43:40.313Z,23.13
2018-03-02T00:46:07.733Z,22.97
2018-03-02T00:48:35.630Z,21.97
2018-03-02T00:51:07.468Z,21.77
2018-03-02T00:53:35.913Z,22.60
2018-03-02T00:56:04.549Z,22.83
2018-03-02T00:58:31.919Z,22.60
2018-03-02T01:01:00.371Z,23.70
2018-03-02T01:03:30.787Z,20.70
2018-03-02T01:06:00.895Z,20.90
2018-03-02T01:08:29.195Z,20.83
2018-03-02T01:10:57.774Z,21.60
2018-03-02T01:13:26.083Z,23.03
2018-03-02T01:15:53.423Z,23.37
2018-03-02T01:18:20.804Z,21.67
2018-03-02T01:20:50.332Z,22.93
2018-03-02T01:23:17.665Z,22.53
2018-03-02T01:25:46.711Z,23.13
2018-03-02T01:28:14.115Z,22.10
2018-03-02T01:30:42.300Z,22.07
2018-03-02T01:33:09.673Z,22.53
2018-03-02T01:35:37.749Z,22.50
2018-03-02T01:38:06.103Z,20.70
2018-03-02T01:40:33.456Z,23.13
2018-03-02T01:43:00.903Z,23.77
2018-03-02T01:45:29.097Z,23.00
2018-03-02T01:47:56.717Z,22.87
2018-03-02T01:50:25.014Z,20.60
2018-03-02T01:52:54.125Z,22.67
2018-03-02T01:55:22.487Z,20.87
2018-03-02T01:57:50.244Z,22.77
2018-03-02T02:00:17.987Z,22.00
2018-03-02T02:02:46.243Z,22.67
2018-03-02T02:05:15.204Z,23.20
2018-03-02T02:07:43.368Z,22.93
2018-03-02T02:10:11.200Z,23.27
2018-03-02T02:12:40.108Z,22.57
2018-03-02T02:15:08.380Z,22.53
2018-03-02T02:17:35.864Z,22.10
2018-03-02T02:20:03.200Z,22.83
2018-03-02T02:22:30.732Z,23.10
2018-03-02T02:24:58.510Z,21.30
2018-03-02T02:27:25.877Z,23.23
2018-03-02T02:29:53.284Z,21.70
2018-03-02T02:32:21.363Z,21.57
2018-03-02T02:34:48.777Z,23.37
2018-03-02T02:37:16.176Z,22.43
2018-03-02T02:39:44.345Z,21.33
2018-03-02T02:42:12.826Z,23.27
2018-03-02T02:44:40.903Z,22.97
2018-03-02T02:47:09.824Z,22.17
2018-03-02T02:49:37.179Z,22.93
2018-03-02T02:52:05.269Z,21.90
2018-03-02T02:54:33.584Z,22.87
2018-03-02T02:57:01.293Z,22.20
2018-03-02T02:59:29.124Z,23.13
2018-03-02T03:01:56.560Z,23.23
2018-03-02T03:04:25.264Z,22.53
2018-03-02T03:06:52.774Z,23.07
2018-03-02T03:09:21.062Z,23.37
2018-03-02T03:11:50.684Z,23.43
2018-03-02T03:14:18.244Z,22.13
2018-03-02T03:16:46.379Z,22.33
2018-03-02T03:19:13.753Z,21.77
2018-03-02T03:21:41.824Z,22.60
2018-03-02T03:24:11.051Z,21.83
2018-03-02T03:26:39.159Z,21.93
2018-03-02T03:29:07.675Z,22.97
2018-03-02T03:31:35.103Z,21.80
2018-03-02T03:34:03.564Z,21.93
2018-03-02T03:36:31.704Z,20.87
2018-03-02T03:38:59.751Z,22.30
2018-03-02T03:41:28.774Z,22.83
2018-03-02T03:43:56.858Z,22.90
2018-03-02T03:46:24.455Z,21.70
2018-03-02T03:48:53.870Z,23.20
2018-03-02T03:51:22.254Z,22.47
2018-03-02T03:53:49.612Z,21.97
2018-03-02T03:56:16.985Z,22.17
2018-03-02T03:58:45.124Z,22.97
2018-03-02T04:01:14.443Z,22.17
2018-03-02T04:03:42.532Z,22.40
2018-03-02T04:06:10.630Z,22.00
2018-03-02T04:08:37.972Z,23.83
2018-03-02T04:11:05.288Z,22.67
2018-03-02T04:13:33.606Z,23.00
2018-03-02T04:16:01.956Z,21.77
2018-03-02T04:18:30.236Z,22.60
2018-03-02T04:20:59.191Z,21.83
2018-03-02T04:23:27.154Z,22.73
2018-03-02T04:25:55.039Z,22.67
2018-03-02T04:28:23.657Z,22.50
2018-03-02T04:30:51.792Z,20.87
2018-03-02T04:33:19.934Z,21.37
2018-03-02T04:35:48.452Z,22.23
2018-03-02T04:38:15.861Z,21.77
2018-03-02T04:40:43.248Z,22.47
2018-03-02T04:43:12.547Z,21.67
2018-03-02T04:45:41.788Z,22.10
2018-03-02T04:48:09.643Z,22.50
2018-03-02T04:50:37.895Z,21.83
2018-03-02T04:53:05.275Z,21.00
2018-03-02T04:55:34.999Z,22.43
2018-03-02T04:58:03.112Z,21.63
2018-03-02T05:00:30.504Z,23.17
2018-03-02T05:02:58.812Z,22.30
2018-03-02T05:05:27.488Z,23.60
2018-03-02T05:07:54.828Z,23.40
2018-03-02T05:10:23.691Z,22.53
2018-03-02T05:12:51.960Z,23.50
2018-03-02T05:15:20.103Z,23.30
2018-03-02T05:17:47.478Z,23.30
2018-03-02T05:20:16.554Z,23.53
2018-03-02T05:22:44.695Z,23.07
2018-03-02T05:25:12.367Z,24.03
2018-03-02T05:27:39.737Z,21.90
2018-03-02T05:30:07.827Z,21.80
2018-03-02T05:32:36.194Z,23.17
2018-03-02T05:35:05.465Z,24.13
2018-03-02T05:37:33.652Z,23.67
2018-03-02T05:40:01.913Z,23.60
2018-03-02T05:42:30.259Z,23.70
2018-03-02T05:44:58.519Z,22.70
2018-03-02T05:47:25.917Z,23.57
2018-03-02T05:49:53.267Z,23.30
2018-03-02T05:52:21.349Z,22.50
2018-03-02T05:54:49.772Z,23.77
2018-03-02T05:57:17.390Z,23.47
2018-03-02T05:59:45.912Z,22.80
2018-03-02T06:02:13.402Z,22.30
2018-03-02T06:04:41.511Z,23.07
2018-03-02T06:07:09.576Z,22.00
2018-03-02T06:09:37.076Z,22.67
2018-03-02T06:12:05.394Z,23.13
2018-03-02T06:14:33.501Z,24.40
2018-03-02T06:17:01.834Z,21.73
2018-03-02T06:19:29.892Z,22.40
2018-03-02T06:21:58.191Z,23.50
2018-03-02T06:24:25.647Z,23.53
2018-03-02T06:26:53.845Z,24.13
2018-03-02T06:29:21.235Z,23.20
2018-03-02T06:31:49.309Z,22.07
2018-03-02T06:34:17.748Z,23.07
2018-03-02T06:36:45.096Z,23.47
2018-03-02T06:39:13.925Z,23.60
2018-03-02T06:41:44.616Z,23.63
2018-03-02T06:44:13.308Z,24.50
2018-03-02T06:46:41.568Z,23.17
2018-03-02T06:49:09.687Z,23.80
2018-03-02T06:51:37.792Z,23.40
2018-03-02T06:54:06.798Z,23.13
2018-03-02T06:56:34.995Z,23.47
2018-03-02T06:59:02.924Z,23.23
2018-03-02T07:01:31.257Z,21.50
2018-03-02T07:03:59.316Z,22.77
2018-03-02T07:06:27.394Z,24.17
2018-03-02T07:08:55.002Z,23.33
2018-03-02T07:11:23.116Z,23.93
2018-03-02T07:13:50.437Z,23.70
2018-03-02T07:16:18.546Z,23.20
2018-03-02T07:18:45.875Z,22.90
2018-03-02T07:21:13.969Z,23.10
2018-03-02T07:23:41.316Z,22.93
2018-03-02T07:26:08.635Z,24.47
2018-03-02T07:28:36.924Z,22.87
2018-03-02T07:31:05.191Z,23.97
2018-03-02T07:33:33.285Z,22.33
2018-03-02T07:36:01.405Z,23.67
2018-03-02T07:38:28.795Z,22.17
2018-03-02T07:40:57.042Z,22.23
2018-03-02T07:43:24.803Z,23.63
2018-03-02T07:45:53.056Z,22.50
2018-03-02T07:48:20.415Z,23.00
2018-03-02T07:50:48.652Z,24.80
2018-03-02T07:53:16.725Z,22.60
2018-03-02T07:55:45.011Z,24.17
2018-03-02T07:58:12.403Z,24.10
2018-03-02T08:00:40.891Z,22.83
2018-03-02T08:03:09.153Z,22.47
2018-03-02T08:05:36.553Z,22.60
2018-03-02T08:08:04.830Z,22.43
2018-03-02T08:10:33.579Z,21.53
2018-03-02T08:13:01.123Z,21.60
2018-03-02T08:15:28.593Z,20.27
2018-03-02T08:17:55.952Z,22.87
2018-03-02T08:20:24.252Z,22.40
2018-03-02T08:22:52.520Z,22.60
2018-03-02T08:25:19.945Z,22.27
2018-03-02T08:27:47.362Z,23.77
2018-03-02T08:30:14.693Z,23.40
2018-03-02T08:32:42.984Z,23.70
2018-03-02T08:35:11.373Z,22.60
2018-03-02T08:37:38.820Z,21.30
2018-03-02T08:40:06.975Z,22.97
2018-03-02T08:42:35.932Z,21.90
2018-03-02T08:45:04.232Z,22.67
2018-03-02T08:47:31.574Z,23.30
2018-03-02T08:49:58.930Z,23.98
2018-03-02T08:52:26.651Z,21.87
2018-03-02T08:54:54.016Z,23.03
2018-03-02T08:57:22.104Z,21.87
2018-03-02T08:59:49.461Z,22.43
2018-03-02T09:02:17.795Z,21.93
2018-03-02T09:04:45.874Z,22.07
2018-03-02T09:07:13.949Z,21.90
2018-03-02T09:09:42.292Z,21.97
2018-03-02T09:12:09.695Z,21.40
2018-03-02T09:14:38.462Z,23.40
2018-03-02T09:17:06.905Z,22.70
2018-03-02T09:19:34.278Z,23.57
2018-03-02T09:22:02.382Z,22.87
2018-03-02T09:24:30.554Z,23.20
2018-03-02T09:26:57.859Z,22.73
2018-03-02T09:29:25.240Z,24.17
2018-03-02T09:31:53.512Z,23.53
2018-03-02T09:34:21.852Z,24.07
2018-03-02T09:36:49.195Z,23.97
2018-03-02T09:39:16.589Z,22.07
2018-03-02T09:41:45.031Z,22.37
2018-03-02T09:44:12.681Z,22.50
2018-03-02T09:46:40.067Z,23.50
2018-03-02T09:49:08.305Z,24.90
2018-03-02T09:51:36.574Z,22.53
2018-03-02T09:54:03.964Z,25.53
2018-03-02T09:56:32.427Z,25.67
2018-03-02T09:58:59.774Z,24.90
2018-03-02T10:01:27.868Z,23.77
2018-03-02T10:03:56.176Z,26.13
2018-03-02T10:06:24.371Z,25.17
2018-03-02T10:08:51.728Z,22.80
2018-03-02T10:11:20.324Z,24.67
2018-03-02T10:13:47.725Z,24.37
2018-03-02T10:16:15.096Z,24.47
2018-03-02T10:18:42.492Z,25.23
2018-03-02T10:21:09.884Z,26.23
2018-03-02T10:23:38.224Z,23.63
2018-03-02T10:26:05.603Z,23.93
2018-03-02T10:28:34.017Z,23.17
2018-03-02T10:31:02.136Z,26.07
2018-03-02T10:33:30.364Z,26.90
2018-03-02T10:35:58.764Z,26.17
2018-03-02T10:38:26.905Z,25.50
2018-03-02T10:40:54.440Z,25.73
2018-03-02T10:43:21.800Z,23.90
2018-03-02T10:45:50.091Z,24.40
2018-03-02T10:48:17.431Z,23.20
2018-03-02T10:50:46.596Z,24.27
2018-03-02T10:53:14.249Z,23.57
2018-03-02T10:55:42.360Z,27.77
2018-03-02T10:58:10.676Z,26.27
2018-03-02T11:00:44.957Z,26.60
2018-03-02T11:06:13.785Z,26.77
2018-03-02T11:08:41.950Z,26.83
2018-03-02T11:11:10.235Z,27.43
2018-03-02T11:13:38.335Z,27.50
2018-03-02T11:16:06.110Z,25.43
2018-03-02T11:18:34.579Z,27.37
2018-03-02T11:21:02.925Z,25.70
2018-03-02T11:23:31.311Z,25.87
2018-03-02T11:25:58.945Z,27.33
2018-03-02T11:28:27.096Z,27.90
2018-03-02T11:30:54.484Z,28.03
2018-03-02T11:33:22.943Z,28.00
2018-03-02T11:36:08.428Z,26.93
2018-03-02T11:41:30.303Z,27.23
2018-03-02T11:44:06.902Z,25.47
2018-03-02T11:46:35.028Z,25.63
2018-03-02T11:51:40.624Z,25.47
2018-03-02T11:54:09.076Z,26.30
2018-03-02T11:56:36.547Z,26.40
2018-03-02T11:59:06.506Z,25.67
2018-03-02T12:01:36.762Z,24.07
2018-03-02T12:04:04.152Z,25.53
2018-03-02T12:06:39.425Z,26.10
2018-03-02T12:09:06.863Z,26.13
2018-03-02T12:11:34.272Z,25.53
2018-03-02T12:14:02.521Z,27.10
2018-03-02T12:16:29.969Z,27.27
2018-03-02T12:18:57.544Z,27.53
2018-03-02T12:21:24.922Z,26.43
2018-03-02T12:23:53.081Z,25.07
2018-03-02T12:26:23.384Z,24.27
2018-03-02T12:28:51.508Z,23.60
2018-03-02T12:31:19.620Z,24.43
2018-03-02T12:33:47.143Z,25.03
2018-03-02T12:36:15.260Z,26.17
2018-03-02T12:38:42.664Z,25.43
2018-03-02T12:41:10.801Z,25.47
2018-03-02T12:43:38.312Z,25.10
2018-03-02T12:46:05.659Z,24.07
2018-03-02T12:48:33.989Z,25.73
2018-03-02T12:51:01.590Z,24.40
2018-03-02T12:53:29.669Z,26.97
2018-03-02T12:55:57.137Z,27.17
2018-03-02T12:58:24.555Z,26.77
2018-03-02T13:00:52.715Z,25.10
2018-03-02T13:03:22.755Z,26.30
2018-03-02T13:05:50.982Z,27.03
2018-03-02T13:08:18.368Z,26.57
2018-03-02T13:10:46.691Z,27.50
2018-03-02T13:13:14.057Z,25.90
2018-03-02T13:15:45.241Z,25.50
2018-03-02T13:18:25.469Z,25.53
2018-03-02T13:20:52.765Z,25.77
2018-03-02T13:23:20.631Z,26.33
2018-03-02T13:25:54.729Z,26.50
2018-03-02T13:28:29.200Z,24.10
2018-03-02T13:30:56.568Z,21.83
2018-03-02T13:33:37.144Z,24.77
2018-03-02T13:36:07.291Z,25.70
2018-03-02T13:38:35.496Z,25.77
2018-03-02T13:41:14.959Z,24.57
2018-03-02T13:43:42.488Z,26.47
2018-03-02T13:46:09.905Z,26.37
2018-03-02T13:48:50.563Z,24.60
2018-03-02T13:51:17.893Z,26.13
2018-03-02T13:53:45.386Z,26.43
2018-03-02T13:56:25.907Z,26.40
2018-03-02T13:58:53.198Z,25.90
2018-03-02T14:01:20.591Z,26.50
2018-03-02T14:04:01.779Z,24.70
2018-03-02T14:06:29.070Z,23.97
2018-03-02T14:08:56.425Z,24.73
2018-03-02T14:11:23.917Z,26.60
2018-03-02T14:13:52.410Z,26.47
2018-03-02T14:16:19.835Z,26.13
2018-03-02T14:18:47.332Z,25.83
2018-03-02T14:21:16.671Z,28.80
2018-03-02T14:23:44.137Z,27.30
2018-03-02T14:26:11.554Z,26.13
2018-03-02T14:28:38.953Z,25.80
2018-03-02T14:31:06.388Z,26.53
2018-03-02T14:33:34.483Z,26.83
2018-03-02T14:36:01.831Z,27.00
2018-03-02T14:38:30.161Z,25.07
2018-03-02T14:40:58.294Z,25.87
2018-03-02T14:43:25.707Z,25.03
2018-03-02T14:45:53.186Z,26.40
2018-03-02T14:48:21.320Z,25.50
2018-03-02T14:50:49.411Z,25.97
2018-03-02T14:53:17.773Z,26.10
2018-03-02T14:55:45.137Z,24.03
2018-03-02T14:58:13.281Z,27.60
2018-03-02T15:00:41.348Z,26.60
2018-03-02T15:03:09.455Z,26.43
2018-03-02T15:05:36.806Z,25.73
2018-03-02T15:08:04.916Z,24.13
2018-03-02T15:10:32.240Z,26.77
2018-03-02T15:12:59.656Z,26.50
2018-03-02T15:15:27.796Z,25.77
2018-03-02T15:17:55.195Z,26.57
2018-03-02T15:20:23.495Z,27.10
2018-03-02T15:22:51.910Z,27.40
2018-03-02T15:25:19.412Z,27.30
2018-03-02T15:27:47.509Z,26.57
2018-03-02T15:30:15.857Z,28.00
2018-03-02T15:32:44.021Z,27.23
2018-03-02T15:35:12.200Z,26.67
2018-03-02T15:37:40.502Z,27.07
2018-03-02T15:40:08.663Z,28.03
2018-03-02T15:42:36.061Z,27.57
2018-03-02T15:45:04.417Z,25.30
2018-03-02T15:47:32.735Z,27.93
2018-03-02T15:50:00.300Z,27.43
2018-03-02T15:52:28.591Z,27.03
2018-03-02T15:54:56.905Z,28.03
2018-03-02T15:57:25.001Z,25.30
2018-03-02T15:59:53.312Z,25.77
2018-03-02T16:02:21.608Z,27.40
2018-03-02T16:04:49.288Z,26.93
2018-03-02T16:07:16.797Z,28.40
2018-03-02T16:09:44.239Z,27.07
2018-03-02T16:12:12.405Z,25.93
2018-03-02T16:14:39.816Z,27.17
2018-03-02T16:17:07.991Z,27.13
2018-03-02T16:19:35.377Z,27.67
2018-03-02T16:22:02.835Z,27.00
2018-03-02T16:24:31.004Z,25.00
2018-03-02T16:26:59.112Z,26.27
2018-03-02T16:29:27.385Z,26.90
2018-03-02T16:31:55.503Z,26.43
2018-03-02T16:34:23.843Z,27.70
2018-03-02T16:36:52.341Z,24.87
2018-03-02T16:39:20.477Z,28.47
2018-03-02T16:41:48.759Z,27.03
2018-03-02T16:44:17.260Z,24.83
2018-03-02T16:46:45.347Z,24.70
2018-03-02T16:49:12.734Z,24.50
2018-03-02T16:51:40.168Z,26.50
2018-03-02T16:54:08.249Z,25.27
2018-03-02T16:56:35.641Z,26.23
2018-03-02T16:59:04.069Z,26.73
2018-03-02T17:01:31.473Z,27.50
2018-03-02T17:03:59.740Z,25.73
2018-03-02T17:06:27.087Z,26.10
2018-03-02T17:08:55.406Z,26.00
2018-03-02T17:11:22.878Z,26.77
2018-03-02T17:13:50.284Z,25.13
2018-03-02T17:16:18.567Z,25.30
2018-03-02T17:18:46.012Z,27.27
2018-03-02T17:21:14.298Z,26.73
2018-03-02T17:23:41.692Z,26.60
2018-03-02T17:26:09.116Z,26.43
2018-03-02T17:28:37.455Z,23.57
2018-03-02T17:31:05.356Z,27.50
2018-03-02T17:33:33.656Z,28.70
2018-03-02T17:36:01.060Z,26.13
2018-03-02T17:38:28.600Z,25.13
2018-03-02T17:40:55.992Z,25.20
2018-03-02T17:43:24.322Z,27.77
2018-03-02T17:45:52.639Z,28.13
2018-03-02T17:48:20.927Z,25.77
2018-03-02T17:50:48.595Z,27.83
2018-03-02T17:53:16.072Z,26.97
2018-03-02T17:55:44.337Z,27.07
2018-03-02T17:58:12.735Z,24.40
2018-03-02T18:00:41.027Z,28.70
2018-03-02T18:03:08.404Z,28.27
2018-03-02T18:05:36.893Z,28.97
2018-03-02T18:08:04.339Z,27.70
2018-03-02T18:10:31.684Z,29.10
2018-03-02T18:12:59.808Z,26.80
2018-03-02T18:15:27.960Z,29.07
2018-03-02T18:17:55.309Z,27.07
2018-03-02T18:20:23.464Z,29.00
2018-03-02T18:22:50.882Z,26.13
2018-03-02T18:25:19.197Z,26.07
2018-03-02T18:27:46.585Z,29.00
2018-03-02T18:30:14.759Z,27.13
2018-03-02T18:32:43.031Z,29.13
2018-03-02T18:35:10.561Z,29.03
2018-03-02T18:37:37.974Z,27.50
2018-03-02T18:40:06.076Z,28.10
2018-03-02T18:42:33.512Z,28.33
2018-03-02T18:45:01.871Z,27.57
2018-03-02T18:47:29.993Z,27.30
2018-03-02T18:49:58.288Z,28.50
2018-03-02T18:52:25.694Z,26.90
2018-03-02T18:54:53.961Z,29.40
2018-03-02T18:57:22.366Z,27.23
2018-03-02T18:59:50.473Z,27.53
2018-03-02T19:02:18.810Z,28.40
2018-03-02T19:04:46.184Z,27.70
2018-03-02T19:07:13.632Z,28.77
2018-03-02T19:09:41.068Z,28.17
2018-03-02T19:12:09.267Z,28.97
2018-03-02T19:14:36.672Z,29.13
2018-03-02T19:17:04.097Z,26.00
2018-03-02T19:19:31.512Z,23.97
2018-03-02T19:21:58.867Z,28.47
2018-03-02T19:24:26.964Z,28.53
2018-03-02T19:26:55.267Z,27.10
2018-03-02T19:29:22.660Z,28.33
2018-03-02T19:31:50.970Z,29.00
2018-03-02T19:34:18.475Z,30.87
2018-03-02T19:36:46.796Z,30.03
2018-03-02T19:39:15.284Z,30.90
2018-03-02T19:41:43.560Z,30.27
2018-03-02T19:44:11.596Z,29.50
2018-03-02T19:46:39.692Z,31.17
2018-03-02T19:49:07.112Z,32.53
2018-03-02T19:51:34.509Z,30.70
2018-03-02T19:54:02.840Z,26.90
2018-03-02T19:56:31.184Z,28.47
2018-03-02T19:58:59.413Z,30.77
2018-03-02T20:01:26.871Z,29.10
2018-03-02T20:03:55.248Z,29.20
2018-03-02T20:06:23.411Z,28.50
2018-03-02T20:08:51.736Z,32.07
2018-03-02T20:11:19.136Z,30.60
2018-03-02T20:13:46.606Z,33.47
2018-03-02T20:16:14.888Z,32.00
2018-03-02T20:18:42.268Z,32.97
2018-03-02T20:21:10.402Z,30.33
2018-03-02T20:23:38.682Z,28.27
2018-03-02T20:26:06.886Z,32.20
2018-03-02T20:28:34.234Z,29.77
2018-03-02T20:31:01.648Z,26.67
2018-03-02T20:33:29.758Z,32.50
2018-03-02T20:38:31.850Z,28.20
2018-03-02T20:41:00.121Z,33.00
2018-03-02T20:43:27.548Z,33.03
2018-03-02T20:45:55.639Z,32.37
2018-03-02T20:48:23.762Z,32.57
2018-03-02T20:50:52.118Z,44.90
2018-03-02T20:53:19.540Z,32.03
2018-03-02T20:55:46.948Z,33.27
2018-03-02T20:58:15.316Z,33.50
2018-03-02T21:00:42.623Z,34.17
2018-03-02T21:03:10.741Z,33.07
2018-03-02T21:05:38.277Z,39.97
2018-03-02T21:08:06.664Z,36.50
2018-03-02T21:10:34.142Z,33.00
2018-03-02T21:13:01.697Z,34.83
2018-03-02T21:15:29.044Z,34.00
2018-03-02T21:17:57.739Z,30.53
2018-03-02T21:20:26.688Z,27.57
2018-03-02T21:22:55.040Z,29.47
2018-03-02T21:25:23.323Z,30.13
2018-03-02T21:27:51.602Z,28.63
2018-03-02T21:30:20.918Z,30.03
2018-03-02T21:32:48.338Z,30.90
2018-03-02T21:35:17.181Z,32.73
2018-03-02T21:37:44.684Z,29.77
2018-03-02T21:40:12.789Z,33.20
2018-03-02T21:42:40.209Z,29.73
2018-03-02T21:45:08.439Z,30.70
2018-03-02T21:47:35.816Z,30.13
2018-03-02T21:50:04.197Z,28.30
2018-03-02T21:52:31.611Z,34.37
2018-03-02T21:54:58.969Z,37.17
2018-03-02T21:57:26.503Z,35.33
2018-03-02T21:59:54.802Z,35.97
2018-03-02T22:02:22.167Z,36.97
2018-03-02T22:04:50.511Z,35.30
2018-03-02T22:07:18.808Z,37.77
2018-03-02T22:09:46.286Z,35.77
2018-03-02T22:12:13.661Z,37.63
2018-03-02T22:14:41.741Z,35.40
2018-03-02T22:17:10.125Z,33.70
2018-03-02T22:19:38.439Z,34.20
2018-03-02T22:22:05.800Z,36.53
2018-03-02T22:24:33.911Z,36.20
2018-03-02T22:27:02.228Z,39.33
2018-03-02T22:29:29.740Z,36.20
2018-03-02T22:31:57.112Z,37.07
2018-03-02T22:34:24.505Z,36.80
2018-03-02T22:36:51.916Z,37.80
2018-03-02T22:39:20.404Z,36.17
2018-03-02T22:41:47.804Z,36.10
2018-03-02T22:44:15.193Z,37.60
2018-03-02T22:46:42.575Z,36.87
2018-03-02T22:49:10.051Z,39.03
2018-03-02T22:51:38.177Z,37.20
2018-03-02T22:54:06.559Z,37.33
2018-03-02T22:56:34.036Z,36.33
2018-03-02T22:59:02.408Z,37.70
2018-03-02T23:01:31.187Z,38.50
2018-03-02T23:03:59.505Z,36.30
2018-03-02T23:06:27.608Z,36.77
2018-03-02T23:08:55.880Z,37.63
2018-03-02T23:11:23.297Z,37.93
2018-03-02T23:13:51.591Z,40.03
2018-03-02T23:16:19.872Z,35.13
2018-03-02T23:18:48.264Z,38.47
2018-03-02T23:21:15.663Z,37.50
2018-03-02T23:23:43.973Z,37.77
2018-03-02T23:26:12.212Z,40.20
2018-03-02T23:28:39.600Z,39.93
2018-03-02T23:31:07.737Z,41.17
2018-03-02T23:33:37.295Z,41.87
2018-03-02T23:36:04.672Z,37.10
2018-03-02T23:38:32.808Z,37.47
2018-03-02T23:41:01.065Z,40.60
2018-03-02T23:43:28.494Z,42.53
2018-03-02T23:45:56.764Z,41.03
2018-03-02T23:48:24.344Z,38.73
2018-03-02T23:50:52.647Z,40.93
2018-03-02T23:53:20.012Z,38.20
2018-03-02T23:55:47.386Z,39.20
2018-03-02T23:58:15.436Z,41.50
